Terminal Aerodrome Forecast
Issued by NWS Sterling, VA

Current Version | Previous Version | Graphics & Text | Print | Product List | Glossary On
Versions: 1 2 3 4 5 6 7 8 9 10 11 12 13 14 15 16 17 18 19 20 21 22 23
000
FTUS41 KLWX 232100 AAA
TAFDCA
TAF AMD
KDCA 232113Z 2321/2418 14004KT P6SM BKN200
     FM240100 13005KT 5SM -RA OVC015 WS020/18035KT
     FM240200 12006KT 5SM RA OVC008 WS020/17035KT
     FM240500 13010KT 2SM RA OVC008 WS020/16040KT
     FM240600 14013KT 1SM RA OVC008 WS020/16045KT
     FM240900 17014KT 1SM -RA OVC008
     FM241100 19012KT P6SM OVC008
     FM241700 19013G23KT P6SM SCT050=

USA.gov is the U.S. government's official web portal to all federal, state and local government web resources and services.